OETR

Turaif Domestic Airport

Airport
ICAO code
OETR
Summary
ICAO Region
MID
ICAO Territory
Location

Turaif,

Coordinates
31° 41' 19" N , 38° 44' 2" E
KCC
Metar
Observation
OETR 271400Z 16006KT CAVOK 15/M04 Q1019 NOSIG
Station
Turaif
Date/Time
2023-01-27 14:00:00
Wind direction
160°
Wind speed
06 kts
Lowest cloud amount
clouds and visibility OK
Temperature
15°C
Dew point
-4°C
Humidity
26%
QNH
1019 hPa
Weather condition
n/a

Description

Turaif Domestic Airport is located 10 km east of Turaif, Saudi Arabia.

Climatology

Hot Desert Climate (Köppen climate classification BWh) - Hot desert climates are typically found in the subtropics where there is unbroken sunshine for the whole year due to the stable descending air and high pressure, little or no precipitation. Maximum temperatures of 40°C to 45°C are not uncommon, particularly during the warmer months of the year. During colder periods of the year, night-time temperatures can drop to freezing or below due to the exceptional radiation loss under the clear skies. However, very rarely do temperatures drop far below freezing.

Runways

Designator Length Width Surface Rops
10/28 3000 45 ASP Yes/Yes

Airport map

Aerial View

SKYbrary Partners:

Safety knowledge contributed by: